Jungfraujoch, Switzerland
Current Conditions -  °F | °C
As of 11:50 AM on Friday 28 Nov 2014 (Local Time) from LSMA Reporting Station
Overcast Overcast  
Wind Chill: 43°   Ceiling: 600
Heat Index: 43°   Visibility: 6mi
Dew Point: 41°   Wind: 2mph
Humidity: 93%   Direction: NA
Pressure: 29.74"   Gusts: NA
Location:  46.55°N, 7.98°E
Report Text: LSMA 281050Z VRB02KT 9999 OVC006 06/05 Q1007 RMK YLO
Loading
Personal Weather Stations






























Interactive Weather Map New forecast layout! Learn more

10-Day Weather Forecast

Advertisements
Track Severe Weather on mobile